sensor_id;sensor_type;location;lat;lon;timestamp;temperature;humidity
12426;DHT22;6277;49.824;9.562;2022-10-13T19:06:19;13.40;90.80
12426;DHT22;6277;49.824;9.562;2022-10-13T19:08:52;15.10;92.20
12426;DHT22;6277;49.824;9.562;2022-10-13T19:11:19;15.40;91.30
12426;DHT22;6277;49.824;9.562;2022-10-13T19:13:46;15.70;90.60
12426;DHT22;6277;49.824;9.562;2022-10-13T19:16:13;15.80;90.10
12426;DHT22;6277;49.824;9.562;2022-10-13T19:18:38;16.00;89.30
12426;DHT22;6277;49.824;9.562;2022-10-13T19:21:04;16.10;88.60
12426;DHT22;6277;49.824;9.562;2022-10-13T19:23:30;16.20;87.90
12426;DHT22;6277;49.824;9.562;2022-10-13T19:25:56;16.30;87.50
12426;DHT22;6277;49.824;9.562;2022-10-13T19:28:22;16.40;87.10
12426;DHT22;6277;49.824;9.562;2022-10-13T19:30:47;16.40;86.70
12426;DHT22;6277;49.824;9.562;2022-10-13T19:33:14;16.50;86.50
12426;DHT22;6277;49.824;9.562;2022-10-13T19:35:46;16.50;86.10
12426;DHT22;6277;49.824;9.562;2022-10-13T19:38:12;16.60;85.90
12426;DHT22;6277;49.824;9.562;2022-10-13T19:40:42;16.60;85.80
12426;DHT22;6277;49.824;9.562;2022-10-13T19:43:08;16.60;85.50
12426;DHT22;6277;49.824;9.562;2022-10-13T19:45:34;16.60;85.50
12426;DHT22;6277;49.824;9.562;2022-10-13T19:48:00;16.60;85.40
12426;DHT22;6277;49.824;9.562;2022-10-13T19:50:25;16.60;85.20
12426;DHT22;6277;49.824;9.562;2022-10-13T19:52:51;16.70;85.20
12426;DHT22;6277;49.824;9.562;2022-10-13T19:55:16;16.60;85.00
12426;DHT22;6277;49.824;9.562;2022-10-13T19:57:42;16.70;84.90
12426;DHT22;6277;49.824;9.562;2022-10-13T20:00:08;16.70;84.70
12426;DHT22;6277;49.824;9.562;2022-10-13T20:02:34;16.70;84.60
12426;DHT22;6277;49.824;9.562;2022-10-13T20:04:59;16.70;84.40
12426;DHT22;6277;49.824;9.562;2022-10-13T20:07:25;16.70;84.30
12426;DHT22;6277;49.824;9.562;2022-10-13T20:09:50;16.70;84.10
12426;DHT22;6277;49.824;9.562;2022-10-13T20:12:16;16.70;84.10
12426;DHT22;6277;49.824;9.562;2022-10-13T20:14:41;16.60;83.90
12426;DHT22;6277;49.824;9.562;2022-10-13T20:17:07;16.70;84.00
12426;DHT22;6277;49.824;9.562;2022-10-13T20:19:32;16.60;84.00
12426;DHT22;6277;49.824;9.562;2022-10-13T20:21:58;16.60;84.10
12426;DHT22;6277;49.824;9.562;2022-10-13T20:24:26;16.60;84.20
12426;DHT22;6277;49.824;9.562;2022-10-13T20:26:51;16.60;84.10
12426;DHT22;6277;49.824;9.562;2022-10-13T20:29:17;16.60;84.00
12426;DHT22;6277;49.824;9.562;2022-10-13T20:31:44;16.60;83.90
12426;DHT22;6277;49.824;9.562;2022-10-13T20:34:10;16.60;83.90
12426;DHT22;6277;49.824;9.562;2022-10-13T20:36:35;16.60;83.90
12426;DHT22;6277;49.824;9.562;2022-10-13T20:39:01;16.60;83.90
12426;DHT22;6277;49.824;9.562;2022-10-13T20:41:29;16.60;83.90
12426;DHT22;6277;49.824;9.562;2022-10-13T20:43:56;16.60;83.80
12426;DHT22;6277;49.824;9.562;2022-10-13T20:46:22;16.60;83.70
12426;DHT22;6277;49.824;9.562;2022-10-13T20:48:49;16.60;83.80
12426;DHT22;6277;49.824;9.562;2022-10-13T20:51:17;16.60;83.70
12426;DHT22;6277;49.824;9.562;2022-10-13T20:53:43;16.60;83.70
12426;DHT22;6277;49.824;9.562;2022-10-13T20:56:16;16.60;83.60
12426;DHT22;6277;49.824;9.562;2022-10-13T20:58:42;16.60;83.40
12426;DHT22;6277;49.824;9.562;2022-10-13T21:01:08;16.60;83.40
12426;DHT22;6277;49.824;9.562;2022-10-13T21:03:34;16.60;83.30
12426;DHT22;6277;49.824;9.562;2022-10-13T21:06:01;16.70;83.30
12426;DHT22;6277;49.824;9.562;2022-10-13T21:08:27;16.60;83.20
12426;DHT22;6277;49.824;9.562;2022-10-13T21:10:53;16.70;83.20
12426;DHT22;6277;49.824;9.562;2022-10-13T21:13:19;16.70;83.20
12426;DHT22;6277;49.824;9.562;2022-10-13T21:15:45;16.70;83.20
12426;DHT22;6277;49.824;9.562;2022-10-13T21:18:12;16.70;83.10
12426;DHT22;6277;49.824;9.562;2022-10-13T21:20:38;16.70;83.00
12426;DHT22;6277;49.824;9.562;2022-10-13T21:23:06;16.70;83.00
12426;DHT22;6277;49.824;9.562;2022-10-13T21:25:36;16.70;83.00
12426;DHT22;6277;49.824;9.562;2022-10-13T21:28:01;16.70;82.90
12426;DHT22;6277;49.824;9.562;2022-10-13T21:30:28;16.70;82.90
12426;DHT22;6277;49.824;9.562;2022-10-13T21:32:54;16.70;82.80
12426;DHT22;6277;49.824;9.562;2022-10-13T21:35:20;16.70;82.80
12426;DHT22;6277;49.824;9.562;2022-10-13T21:37:46;16.70;82.80
12426;DHT22;6277;49.824;9.562;2022-10-13T21:40:11;16.70;82.80
12426;DHT22;6277;49.824;9.562;2022-10-13T21:42:37;16.70;82.90
12426;DHT22;6277;49.824;9.562;2022-10-13T21:45:03;16.80;82.90
12426;DHT22;6277;49.824;9.562;2022-10-13T21:47:30;16.70;82.80
12426;DHT22;6277;49.824;9.562;2022-10-13T21:49:55;16.70;82.80
12426;DHT22;6277;49.824;9.562;2022-10-13T21:52:21;16.70;82.70
12426;DHT22;6277;49.824;9.562;2022-10-13T21:54:51;16.70;82.70
12426;DHT22;6277;49.824;9.562;2022-10-13T21:57:17;16.80;82.70
12426;DHT22;6277;49.824;9.562;2022-10-13T21:59:42;16.80;82.70
12426;DHT22;6277;49.824;9.562;2022-10-13T22:02:08;16.80;82.70
12426;DHT22;6277;49.824;9.562;2022-10-13T22:04:33;16.80;82.60
12426;DHT22;6277;49.824;9.562;2022-10-13T22:06:59;16.80;82.50
12426;DHT22;6277;49.824;9.562;2022-10-13T22:09:25;16.80;82.50
12426;DHT22;6277;49.824;9.562;2022-10-13T22:11:50;16.80;82.50
12426;DHT22;6277;49.824;9.562;2022-10-13T22:14:16;16.80;82.50
12426;DHT22;6277;49.824;9.562;2022-10-13T22:16:44;16.80;82.50
12426;DHT22;6277;49.824;9.562;2022-10-13T22:19:11;16.80;82.50
12426;DHT22;6277;49.824;9.562;2022-10-13T22:21:40;16.80;82.40
12426;DHT22;6277;49.824;9.562;2022-10-13T22:24:09;16.80;82.30
12426;DHT22;6277;49.824;9.562;2022-10-13T22:26:37;16.80;82.30
12426;DHT22;6277;49.824;9.562;2022-10-13T22:29:04;16.80;82.30
12426;DHT22;6277;49.824;9.562;2022-10-13T22:31:30;16.90;82.40
12426;DHT22;6277;49.824;9.562;2022-10-13T22:33:58;16.80;82.30
12426;DHT22;6277;49.824;9.562;2022-10-13T22:36:24;16.80;82.20
12426;DHT22;6277;49.824;9.562;2022-10-13T22:38:52;16.80;82.20
12426;DHT22;6277;49.824;9.562;2022-10-13T22:41:18;16.90;82.10
12426;DHT22;6277;49.824;9.562;2022-10-13T22:43:48;16.80;82.00
12426;DHT22;6277;49.824;9.562;2022-10-13T22:46:18;16.80;81.90
12426;DHT22;6277;49.824;9.562;2022-10-13T22:48:44;16.90;81.90
12426;DHT22;6277;49.824;9.562;2022-10-13T22:51:12;16.80;81.80
12426;DHT22;6277;49.824;9.562;2022-10-13T22:53:38;16.90;81.80
12426;DHT22;6277;49.824;9.562;2022-10-13T22:56:10;16.90;81.70
12426;DHT22;6277;49.824;9.562;2022-10-13T22:58:36;16.90;81.60
12426;DHT22;6277;49.824;9.562;2022-10-13T23:01:06;16.80;81.50
12426;DHT22;6277;49.824;9.562;2022-10-13T23:03:33;16.90;81.50
12426;DHT22;6277;49.824;9.562;2022-10-13T23:05:59;16.90;81.40
12426;DHT22;6277;49.824;9.562;2022-10-13T23:08:24;16.80;81.20
12426;DHT22;6277;49.824;9.562;2022-10-13T23:10:50;16.90;81.20
12426;DHT22;6277;49.824;9.562;2022-10-13T23:13:16;16.80;81.10
12426;DHT22;6277;49.824;9.562;2022-10-13T23:15:41;16.80;81.10
12426;DHT22;6277;49.824;9.562;2022-10-13T23:18:07;16.80;81.00
12426;DHT22;6277;49.824;9.562;2022-10-13T23:20:32;16.70;80.90
12426;DHT22;6277;49.824;9.562;2022-10-13T23:22:58;16.70;80.80
12426;DHT22;6277;49.824;9.562;2022-10-13T23:25:23;16.70;80.80
12426;DHT22;6277;49.824;9.562;2022-10-13T23:27:49;16.70;80.70
12426;DHT22;6277;49.824;9.562;2022-10-13T23:30:14;16.60;80.60
12426;DHT22;6277;49.824;9.562;2022-10-13T23:32:40;16.60;80.50
12426;DHT22;6277;49.824;9.562;2022-10-13T23:35:06;16.60;80.60
12426;DHT22;6277;49.824;9.562;2022-10-13T23:37:31;16.50;80.50
12426;DHT22;6277;49.824;9.562;2022-10-13T23:39:57;16.50;80.60
12426;DHT22;6277;49.824;9.562;2022-10-13T23:42:22;16.50;80.60
12426;DHT22;6277;49.824;9.562;2022-10-13T23:44:48;16.50;80.60
12426;DHT22;6277;49.824;9.562;2022-10-13T23:47:13;16.40;80.50
12426;DHT22;6277;49.824;9.562;2022-10-13T23:49:39;16.40;80.50
12426;DHT22;6277;49.824;9.562;2022-10-13T23:52:04;16.40;80.50
12426;DHT22;6277;49.824;9.562;2022-10-13T23:54:30;16.40;80.60
12426;DHT22;6277;49.824;9.562;2022-10-13T23:56:56;16.40;80.70
12426;DHT22;6277;49.824;9.562;2022-10-13T23:59:21;16.30;80.60
